Main page
METAR-TAF:

METAR-TAF

Airports :

Birmingham Airport

Birmingham, England

latitude: 52-27N, longitude: 001-44W, elevation: 99 m

Current weather observation

The report was made 16 minutes ago, at 18:50 UTC
Wind 5 kt from the South, varying between South/Southeast and Southwest
Temperature 10°C
Humidity 82%
Pressure 1022 hPa
Visibility 10 km or more
Scattered clouds at a height of 4700 ft

METAR: EGBB 131850Z 19005KT 160V220 9999 SCT047 10/07 Q1022

Time: 19:06 (19:06 UTC)

Forecast

The report was made 2 hours and 3 minutes ago, at 17:03 UTC
Forecast valid from 13 at 18 UTC to 14 at 18 UTC
Wind 10 kt from the Southwest
Visibility 10 km or more
Few clouds at a height of 3000 ft
Probability 30% :
Temporary
from 14 at 00 UTC to 14 at 12 UTC
Wind 15 kt from the South with gusts up to 25 kt

TAF: EGBB 131703Z 1318/1418 23010KT 9999 FEW030 PROB30 TEMPO 1400/1412 19015G25KT

Weather observations and forecasts of more than 4000 airports (METAR and TAF reports).

The available stations are represented by yellow and red dots on the map.

Hover mouse over dot to see the name of the station.

Then click to see weather observations and forecasts.

To change the map : click on the green buttons with a black cross to zoom in, on the green button with a dash to zoom out, or on the green arrows for adjacent maps.


METAR-TAF: